Time;durP1;ratioP1;P1;durP2;ratioP2;P2;SDS_P1;SDS_P2;PMS_P1;PMS_P2;Temp;Humidity;BMP_temperature;BMP_pressure;BME280_temperature;BME280_humidity;BME280_pressure;Samples;Min_cycle;Max_cycle;Signal;HPM_P1;HPM_P2
2024/01/23 00:00:54;;;;;;;14.13;13.33;;;6.10;99.90;;;;;;5044627;28;20198;-80
2024/01/23 00:03:22;;;;;;;14.40;13.60;;;6.10;99.90;;;;;;5044727;28;20195;-80
2024/01/23 00:05:48;;;;;;;14.40;13.50;;;6.10;99.90;;;;;;5045000;28;20288;-79
2024/01/23 00:08:15;;;;;;;14.33;13.50;;;6.10;99.90;;;;;;5048073;28;20217;-80
2024/01/23 00:10:42;;;;;;;14.37;13.40;;;6.10;99.90;;;;;;5044860;28;20202;-80
2024/01/23 00:13:09;;;;;;;14.80;13.73;;;6.10;99.90;;;;;;5040911;28;20246;-80
2024/01/23 00:15:36;;;;;;;13.97;13.17;;;6.00;99.90;;;;;;5043298;28;20198;-80
2024/01/23 00:18:06;;;;;;;14.07;13.17;;;6.00;99.90;;;;;;5047200;28;20598;-80
2024/01/23 00:20:32;;;;;;;14.27;13.47;;;6.00;99.90;;;;;;5028473;28;20261;-79
2024/01/23 00:22:58;;;;;;;14.20;13.40;;;6.00;99.90;;;;;;5043954;28;20183;-79
2024/01/23 00:25:25;;;;;;;14.40;13.60;;;6.10;99.90;;;;;;5043401;28;20253;-80
2024/01/23 00:27:52;;;;;;;14.30;13.50;;;6.10;99.90;;;;;;5048986;28;20236;-80
2024/01/23 00:30:19;;;;;;;15.20;14.13;;;6.10;99.90;;;;;;5039117;28;20272;-80
2024/01/23 00:32:46;;;;;;;14.20;13.10;;;6.10;99.90;;;;;;5046756;28;20288;-80
2024/01/23 00:35:14;;;;;;;14.17;13.27;;;6.10;99.90;;;;;;5042082;28;20198;-80
2024/01/23 00:37:41;;;;;;;14.13;13.30;;;6.10;99.90;;;;;;5041354;28;20256;-80
2024/01/23 00:40:11;;;;;;;14.67;13.67;;;6.10;99.90;;;;;;5040805;28;20681;-80
2024/01/23 00:42:38;;;;;;;13.97;12.87;;;6.10;99.90;;;;;;5044274;28;20248;-80
2024/01/23 00:45:05;;;;;;;13.63;12.83;;;6.10;99.90;;;;;;5040361;28;20657;-80
2024/01/23 00:47:32;;;;;;;14.30;13.27;;;6.00;99.90;;;;;;5033828;28;20253;-80
2024/01/23 00:49:58;;;;;;;14.67;13.67;;;5.90;99.90;;;;;;5046497;28;20242;-80
2024/01/23 00:52:27;;;;;;;14.20;13.23;;;5.90;99.90;;;;;;5035865;28;20277;-79
2024/01/23 00:54:58;;;;;;;14.27;13.47;;;6.00;99.90;;;;;;5040555;28;20269;-80
2024/01/23 00:57:25;;;;;;;13.97;13.17;;;5.90;99.90;;;;;;5036531;28;20270;-80
2024/01/23 00:59:52;;;;;;;13.67;12.87;;;6.00;99.90;;;;;;5043317;28;20195;-80
2024/01/23 01:02:19;;;;;;;14.07;13.10;;;5.90;99.90;;;;;;5047460;28;20290;-79
2024/01/23 01:04:46;;;;;;;14.60;13.60;;;5.90;99.90;;;;;;5044099;28;20202;-80
2024/01/23 01:07:13;;;;;;;14.50;13.60;;;5.80;99.90;;;;;;5048175;28;20190;-80
2024/01/23 01:09:42;;;;;;;14.07;13.27;;;5.70;99.90;;;;;;5042491;28;20305;-80
2024/01/23 01:12:08;;;;;;;14.10;13.20;;;5.70;99.90;;;;;;5049891;28;20386;-79
2024/01/23 01:14:37;;;;;;;14.93;13.70;;;5.70;99.90;;;;;;5037917;28;20209;-80
2024/01/23 01:17:04;;;;;;;14.00;13.20;;;5.60;99.90;;;;;;5043420;28;20200;-80
2024/01/23 01:19:31;;;;;;;14.10;13.30;;;5.60;99.90;;;;;;5043030;28;20218;-80
2024/01/23 01:21:58;;;;;;;14.10;13.30;;;5.50;99.90;;;;;;5043994;28;20284;-80
2024/01/23 01:24:25;;;;;;;14.00;13.30;;;5.60;99.90;;;;;;5039576;28;20206;-80
2024/01/23 01:26:53;;;;;;;14.60;13.70;;;5.60;99.90;;;;;;5042915;28;20292;-80
2024/01/23 01:29:19;;;;;;;14.87;13.93;;;5.60;99.90;;;;;;5041710;28;20222;-80
2024/01/23 01:31:46;;;;;;;15.00;14.00;;;5.70;99.90;;;;;;5048472;28;20199;-80
2024/01/23 01:34:13;;;;;;;14.33;13.53;;;5.70;99.90;;;;;;5044105;28;20572;-80
2024/01/23 01:36:40;;;;;;;14.93;14.00;;;5.80;99.90;;;;;;5048477;28;20198;-79
2024/01/23 01:39:07;;;;;;;15.10;14.00;;;5.80;99.90;;;;;;5043314;28;20258;-79
2024/01/23 01:41:34;;;;;;;14.40;13.40;;;5.80;99.90;;;;;;5039661;28;20211;-80
2024/01/23 01:44:02;;;;;;;14.00;13.20;;;5.90;99.90;;;;;;5048184;28;20198;-80
2024/01/23 01:46:29;;;;;;;14.80;13.73;;;5.80;99.90;;;;;;5036743;28;20196;-79
2024/01/23 01:48:56;;;;;;;14.00;13.20;;;5.90;99.90;;;;;;5040026;28;20257;-80
2024/01/23 01:51:26;;;;;;;15.00;13.90;;;5.90;99.90;;;;;;5032356;28;20204;-80
2024/01/23 01:53:54;;;;;;;15.07;14.00;;;5.90;99.90;;;;;;5030647;28;20295;-80
2024/01/23 01:56:22;;;;;;;14.23;13.43;;;5.90;99.90;;;;;;5042659;28;20199;-80
2024/01/23 01:58:49;;;;;;;14.83;13.93;;;5.80;99.90;;;;;;5041281;28;20226;-80
2024/01/23 02:01:18;;;;;;;14.30;13.37;;;5.80;99.90;;;;;;5039440;28;20225;-79
2024/01/23 02:03:45;;;;;;;13.60;12.80;;;5.70;99.90;;;;;;5032627;28;20689;-80
2024/01/23 02:06:12;;;;;;;14.00;13.17;;;5.60;99.90;;;;;;5049587;28;20247;-80
2024/01/23 02:08:40;;;;;;;14.20;13.30;;;5.50;99.90;;;;;;5040282;28;20226;-80
2024/01/23 02:11:07;;;;;;;14.60;13.70;;;5.50;99.90;;;;;;5049659;28;20197;-80
2024/01/23 02:13:33;;;;;;;14.80;13.70;;;5.50;99.90;;;;;;5039210;28;20704;-80
2024/01/23 02:16:00;;;;;;;14.67;13.50;;;5.50;99.90;;;;;;5033033;28;20220;-80
2024/01/23 02:18:28;;;;;;;14.23;13.30;;;5.50;99.90;;;;;;5032986;28;20281;-80
2024/01/23 02:20:55;;;;;;;14.13;13.27;;;5.50;99.90;;;;;;5026040;28;20215;-80
2024/01/23 02:23:27;;;;;;;14.40;13.40;;;5.50;99.90;;;;;;5037277;28;20203;-80
2024/01/23 02:25:53;;;;;;;14.77;13.70;;;5.50;99.90;;;;;;5046816;28;20210;-80
2024/01/23 02:28:20;;;;;;;14.33;13.43;;;5.50;99.90;;;;;;5046247;28;20626;-80
2024/01/23 02:30:47;;;;;;;14.47;13.57;;;5.50;99.90;;;;;;5039515;28;20228;-80
2024/01/23 02:33:14;;;;;;;14.63;13.60;;;5.50;99.90;;;;;;5041140;28;20218;-80
2024/01/23 02:35:41;;;;;;;13.97;13.17;;;5.60;99.90;;;;;;5034756;28;20198;-80
2024/01/23 02:38:08;;;;;;;15.17;14.07;;;5.60;99.90;;;;;;5030049;28;20226;-81
2024/01/23 02:40:36;;;;;;;14.57;13.60;;;5.60;99.90;;;;;;5044239;28;20201;-80
2024/01/23 02:43:04;;;;;;;15.00;14.10;;;5.60;99.90;;;;;;5037960;28;20213;-80
2024/01/23 02:45:30;;;;;;;14.57;13.67;;;5.60;99.90;;;;;;5041441;28;20248;-80
2024/01/23 02:47:57;;;;;;;15.10;14.00;;;5.60;99.90;;;;;;5039596;28;20229;-79
2024/01/23 02:50:26;;;;;;;14.70;13.60;;;5.60;99.90;;;;;;5039607;28;20229;-80
2024/01/23 02:52:53;;;;;;;15.10;14.20;;;5.50;99.90;;;;;;5041016;28;20229;-79
2024/01/23 02:55:20;;;;;;;15.33;13.90;;;5.60;99.90;;;;;;5044280;28;20206;-80
2024/01/23 02:57:48;;;;;;;14.90;13.70;;;5.60;99.90;;;;;;5036505;28;20217;-79
2024/01/23 03:00:15;;;;;;;14.50;13.63;;;5.60;99.90;;;;;;5037823;28;20685;-79
2024/01/23 03:02:42;;;;;;;15.37;14.20;;;5.60;99.90;;;;;;5038333;28;20218;-80
2024/01/23 03:05:09;;;;;;;15.07;14.03;;;5.60;99.90;;;;;;5029700;28;20688;-80
2024/01/23 03:07:36;;;;;;;14.40;13.50;;;5.70;99.90;;;;;;5042270;28;20625;-80
2024/01/23 03:10:03;;;;;;;15.23;14.13;;;5.70;99.90;;;;;;5039862;28;20205;-80
2024/01/23 03:12:31;;;;;;;14.87;13.70;;;5.70;99.90;;;;;;5046317;28;20235;-80
2024/01/23 03:14:59;;;;;;;15.97;14.30;;;5.70;99.90;;;;;;5041325;28;20205;-80
2024/01/23 03:17:25;;;;;;;14.77;13.67;;;5.80;99.90;;;;;;5044835;28;20323;-80
2024/01/23 03:19:52;;;;;;;14.97;13.80;;;5.80;99.90;;;;;;5041230;28;20198;-80
2024/01/23 03:22:19;;;;;;;15.20;14.03;;;5.70;99.90;;;;;;5040869;28;20194;-80
2024/01/23 03:24:46;;;;;;;15.70;14.40;;;5.80;99.90;;;;;;5045035;28;20208;-80
2024/01/23 03:27:13;;;;;;;14.97;13.80;;;5.80;99.90;;;;;;5037816;28;20224;-79
2024/01/23 03:29:41;;;;;;;15.30;13.90;;;5.80;99.90;;;;;;5045761;28;20216;-80
2024/01/23 03:32:10;;;;;;;14.50;13.40;;;5.80;99.90;;;;;;5047935;28;20214;-80
2024/01/23 03:34:37;;;;;;;14.60;13.60;;;5.80;99.90;;;;;;5048132;28;20217;-79
2024/01/23 03:37:04;;;;;;;14.57;13.70;;;5.80;99.90;;;;;;5043736;28;20205;-80
2024/01/23 03:39:31;;;;;;;14.03;13.13;;;5.80;99.90;;;;;;5043998;28;20230;-80
2024/01/23 03:41:59;;;;;;;15.50;14.10;;;5.90;99.90;;;;;;5048548;28;20256;-82
2024/01/23 03:44:26;;;;;;;13.97;13.07;;;5.80;99.90;;;;;;5040412;28;20237;-79
2024/01/23 03:46:53;;;;;;;14.40;13.40;;;5.90;99.90;;;;;;5042824;28;20200;-79
2024/01/23 03:49:21;;;;;;;14.20;13.30;;;5.90;99.90;;;;;;5037489;28;20218;-79
2024/01/23 03:51:49;;;;;;;14.60;13.47;;;5.90;99.90;;;;;;5042033;28;20207;-82
2024/01/23 03:54:16;;;;;;;14.87;13.67;;;5.90;99.90;;;;;;5045061;28;20271;-82
2024/01/23 03:56:43;;;;;;;15.03;13.60;;;5.90;99.90;;;;;;5039898;28;20676;-81
2024/01/23 03:59:10;;;;;;;14.30;13.33;;;5.90;99.90;;;;;;5029024;28;20222;-82
2024/01/23 04:01:37;;;;;;;13.80;12.97;;;5.90;99.90;;;;;;5032910;28;20230;-81
2024/01/23 04:04:04;;;;;;;14.50;13.50;;;5.90;99.90;;;;;;5032754;28;20256;-81
2024/01/23 04:06:32;;;;;;;14.37;13.27;;;5.90;99.90;;;;;;5032591;28;20228;-81
2024/01/23 04:09:00;;;;;;;13.80;13.00;;;5.90;99.90;;;;;;5032783;28;20219;-81
2024/01/23 04:11:27;;;;;;;13.70;12.80;;;5.90;99.90;;;;;;5030198;28;20260;-79
2024/01/23 04:13:54;;;;;;;14.00;12.93;;;5.90;99.90;;;;;;5029411;28;20228;-81
2024/01/23 04:16:20;;;;;;;13.20;12.37;;;5.90;99.90;;;;;;5046253;28;20730;-82
2024/01/23 04:18:47;;;;;;;14.53;13.57;;;5.90;99.90;;;;;;5029801;28;20233;-82
2024/01/23 04:21:16;;;;;;;14.17;13.00;;;5.90;99.90;;;;;;5045029;28;20205;-82
2024/01/23 04:23:44;;;;;;;14.00;13.03;;;5.90;99.90;;;;;;5031808;28;20223;-82
2024/01/23 04:26:11;;;;;;;14.87;13.37;;;5.80;99.90;;;;;;5031845;28;20250;-82
2024/01/23 04:28:38;;;;;;;14.00;13.00;;;5.80;99.90;;;;;;5044082;28;20222;-82
2024/01/23 04:31:05;;;;;;;13.57;12.53;;;5.80;99.90;;;;;;5040617;28;20211;-82
2024/01/23 04:33:32;;;;;;;13.93;12.87;;;5.80;99.90;;;;;;5033712;28;20270;-82
2024/01/23 04:35:59;;;;;;;14.00;13.10;;;5.80;99.90;;;;;;5042972;28;20205;-82
2024/01/23 04:38:26;;;;;;;14.60;13.60;;;5.80;99.90;;;;;;5050530;28;20670;-78
2024/01/23 04:40:54;;;;;;;13.90;13.00;;;5.80;99.90;;;;;;5040470;28;20215;-79
2024/01/23 04:43:21;;;;;;;14.10;13.07;;;5.80;99.90;;;;;;5039283;28;20236;-79
2024/01/23 04:45:48;;;;;;;14.53;13.40;;;5.70;99.90;;;;;;5041800;28;20289;-79
2024/01/23 04:48:14;;;;;;;14.87;13.50;;;5.70;99.90;;;;;;5040055;28;20764;-79
2024/01/23 04:50:41;;;;;;;14.60;13.50;;;5.70;99.90;;;;;;5040038;28;20205;-78
2024/01/23 04:53:08;;;;;;;14.93;13.73;;;5.70;99.90;;;;;;5031407;28;20641;-79
2024/01/23 04:55:35;;;;;;;14.13;12.93;;;5.60;99.90;;;;;;5044522;28;20200;-79
2024/01/23 04:58:03;;;;;;;15.63;14.33;;;5.60;99.90;;;;;;5042881;28;20252;-79
2024/01/23 05:00:30;;;;;;;16.63;15.27;;;5.60;99.90;;;;;;5050488;28;20205;-79
2024/01/23 05:02:57;;;;;;;15.03;14.00;;;5.60;99.90;;;;;;5036574;28;20594;-78
2024/01/23 05:05:23;;;;;;;15.90;14.80;;;5.50;99.90;;;;;;5050980;28;20224;-79
2024/01/23 05:07:50;;;;;;;16.00;14.90;;;5.60;99.90;;;;;;5044164;28;20270;-79
2024/01/23 05:10:17;;;;;;;15.53;14.23;;;5.60;99.90;;;;;;5043017;28;20209;-79
2024/01/23 05:12:44;;;;;;;15.07;14.00;;;5.60;99.90;;;;;;5046432;28;20243;-79
2024/01/23 05:15:12;;;;;;;15.03;13.93;;;5.60;99.90;;;;;;5043632;28;20220;-79
2024/01/23 05:17:39;;;;;;;15.33;14.10;;;5.50;99.90;;;;;;5035817;28;20237;-79
2024/01/23 05:20:07;;;;;;;16.67;15.17;;;5.60;99.90;;;;;;5039373;28;20259;-78
2024/01/23 05:22:34;;;;;;;15.57;14.40;;;5.50;99.90;;;;;;5037870;28;20200;-79
2024/01/23 05:25:02;;;;;;;16.83;15.43;;;5.60;99.90;;;;;;5043987;28;20194;-78
2024/01/23 05:27:29;;;;;;;19.63;15.73;;;5.50;99.90;;;;;;5035113;28;20656;-79
2024/01/23 05:29:56;;;;;;;16.07;14.57;;;5.50;99.90;;;;;;5047982;28;20199;-79
2024/01/23 05:32:24;;;;;;;17.43;16.10;;;5.40;99.90;;;;;;5039180;28;20201;-79
2024/01/23 05:34:51;;;;;;;17.27;15.93;;;5.40;99.90;;;;;;5044549;28;20262;-79
2024/01/23 05:37:19;;;;;;;16.97;15.57;;;5.40;99.90;;;;;;5046499;28;20197;-79
2024/01/23 05:39:46;;;;;;;17.60;16.30;;;5.40;99.90;;;;;;5042728;28;20669;-79
2024/01/23 05:42:13;;;;;;;17.57;16.23;;;5.30;99.90;;;;;;5037450;28;20210;-78
2024/01/23 05:44:40;;;;;;;16.93;15.80;;;5.30;99.90;;;;;;5042546;28;20224;-79
2024/01/23 05:47:07;;;;;;;17.20;16.00;;;5.30;99.90;;;;;;5046485;28;20581;-79
2024/01/23 05:49:35;;;;;;;16.77;15.70;;;5.20;99.90;;;;;;5032266;28;20218;-78
2024/01/23 05:52:02;;;;;;;16.10;15.07;;;5.20;99.90;;;;;;5035737;28;20205;-78
2024/01/23 05:54:29;;;;;;;16.30;15.20;;;5.10;99.90;;;;;;5036131;28;20740;-78
2024/01/23 05:56:55;;;;;;;16.13;15.23;;;5.00;99.90;;;;;;5044067;28;20666;-77
2024/01/23 05:59:22;;;;;;;16.87;15.67;;;5.00;99.90;;;;;;5034862;28;20774;-78
2024/01/23 06:01:49;;;;;;;16.00;15.00;;;4.90;99.90;;;;;;5037464;28;20231;-78
2024/01/23 06:04:16;;;;;;;16.00;14.97;;;4.90;99.90;;;;;;5045805;28;20196;-79
2024/01/23 06:06:44;;;;;;;15.87;14.87;;;4.80;99.90;;;;;;5043228;28;20197;-79
2024/01/23 06:09:11;;;;;;;15.97;15.00;;;4.70;99.90;;;;;;5043116;28;20225;-79
2024/01/23 06:11:39;;;;;;;16.13;15.13;;;4.70;99.90;;;;;;5038727;28;20219;-79
2024/01/23 06:14:06;;;;;;;15.10;14.27;;;4.60;99.90;;;;;;5045975;28;20694;-79
2024/01/23 06:16:33;;;;;;;15.33;14.43;;;4.60;99.90;;;;;;5033299;28;20211;-79
2024/01/23 06:19:00;;;;;;;15.20;14.30;;;4.60;99.90;;;;;;5045350;28;20231;-79
2024/01/23 06:21:26;;;;;;;15.00;14.20;;;4.60;99.90;;;;;;5034980;28;20196;-79
2024/01/23 06:23:54;;;;;;;14.93;14.10;;;4.60;99.90;;;;;;5047575;28;20197;-79
2024/01/23 06:26:21;;;;;;;15.70;14.70;;;4.60;99.90;;;;;;5043388;28;20253;-79
2024/01/23 06:28:48;;;;;;;15.10;14.30;;;4.60;99.90;;;;;;5045372;28;20269;-80
2024/01/23 06:31:15;;;;;;;15.03;14.23;;;4.60;99.90;;;;;;5042240;28;20203;-80
2024/01/23 06:33:42;;;;;;;15.47;14.47;;;4.60;99.90;;;;;;5036004;28;20211;-79
2024/01/23 06:36:09;;;;;;;15.30;14.50;;;4.60;99.90;;;;;;5035234;28;20198;-80
2024/01/23 06:38:35;;;;;;;15.37;14.20;;;4.60;99.90;;;;;;5046975;28;20211;-79
2024/01/23 06:41:04;;;;;;;15.00;14.20;;;4.60;99.90;;;;;;5041621;28;20200;-78
2024/01/23 06:43:31;;;;;;;15.50;14.33;;;4.60;99.90;;;;;;5031857;28;20250;-79
2024/01/23 06:45:58;;;;;;;15.23;14.33;;;4.70;99.90;;;;;;5035703;28;20286;-79
2024/01/23 06:48:25;;;;;;;14.77;13.97;;;4.70;99.90;;;;;;5044092;28;20672;-79
2024/01/23 06:50:51;;;;;;;14.33;13.47;;;4.70;99.90;;;;;;5031647;28;20198;-79
2024/01/23 06:53:18;;;;;;;14.53;13.63;;;4.70;99.90;;;;;;5046819;28;20206;-78
2024/01/23 06:55:45;;;;;;;15.00;14.00;;;4.70;99.90;;;;;;5041659;28;20243;-79
2024/01/23 06:58:14;;;;;;;15.37;14.40;;;4.70;99.90;;;;;;5038333;28;20227;-79
2024/01/23 07:00:41;;;;;;;15.33;14.33;;;4.70;99.90;;;;;;5044976;28;20203;-79
2024/01/23 07:03:08;;;;;;;14.53;13.73;;;4.70;99.90;;;;;;5038855;28;20274;-79
2024/01/23 07:05:35;;;;;;;14.33;13.57;;;4.70;99.90;;;;;;5034546;28;20325;-79
2024/01/23 07:08:03;;;;;;;14.00;13.20;;;4.60;99.90;;;;;;5042442;28;20594;-79
2024/01/23 07:10:30;;;;;;;13.83;13.07;;;4.60;99.90;;;;;;5050339;28;20247;-79
2024/01/23 07:12:57;;;;;;;14.70;13.87;;;4.50;99.90;;;;;;5035235;28;20203;-79
2024/01/23 07:15:25;;;;;;;14.93;13.77;;;4.40;99.90;;;;;;5044609;28;20238;-79
2024/01/23 07:17:53;;;;;;;14.90;14.00;;;4.40;99.90;;;;;;5049556;28;20219;-80
2024/01/23 07:20:20;;;;;;;15.17;14.10;;;4.30;99.90;;;;;;5043253;28;20253;-79
2024/01/23 07:22:47;;;;;;;14.77;13.87;;;4.30;99.90;;;;;;5053169;28;20210;-79
2024/01/23 07:25:14;;;;;;;15.00;14.00;;;4.20;99.90;;;;;;5045349;28;20199;-83
2024/01/23 07:27:41;;;;;;;15.00;14.10;;;4.10;99.90;;;;;;5040609;28;20217;-83
2024/01/23 07:30:08;;;;;;;15.03;14.13;;;4.10;99.90;;;;;;5045915;28;20195;-83
2024/01/23 07:32:36;;;;;;;15.07;14.07;;;4.10;99.90;;;;;;5046846;28;20195;-83
2024/01/23 07:35:03;;;;;;;15.53;14.47;;;4.00;99.90;;;;;;5041700;28;20233;-83
2024/01/23 07:37:30;;;;;;;15.77;14.63;;;4.00;99.90;;;;;;5045583;28;20207;-83
2024/01/23 07:39:58;;;;;;;14.50;13.60;;;4.10;99.90;;;;;;5037695;28;20693;-81
2024/01/23 07:42:24;;;;;;;15.13;14.03;;;4.10;99.90;;;;;;5040970;28;20191;-78
2024/01/23 07:44:51;;;;;;;14.80;13.80;;;4.10;99.90;;;;;;5039424;28;20197;-79
2024/01/23 07:47:18;;;;;;;15.00;13.90;;;4.30;99.90;;;;;;5046916;28;20276;-79
2024/01/23 07:49:46;;;;;;;14.83;13.93;;;4.30;99.90;;;;;;5030707;28;20265;-79
2024/01/23 07:52:14;;;;;;;14.60;13.70;;;4.40;99.90;;;;;;5049847;28;20199;-79
2024/01/23 07:54:41;;;;;;;14.40;13.50;;;4.50;99.90;;;;;;5038193;28;20223;-80
2024/01/23 07:57:07;;;;;;;15.00;14.10;;;4.50;99.90;;;;;;5049277;28;20269;-79
2024/01/23 07:59:34;;;;;;;14.73;13.83;;;4.60;99.90;;;;;;5045112;28;20235;-79
2024/01/23 08:02:01;;;;;;;15.10;14.10;;;4.60;99.90;;;;;;5045342;28;20256;-79
2024/01/23 08:04:28;;;;;;;14.70;13.80;;;4.70;99.90;;;;;;5042886;28;20257;-83
2024/01/23 08:06:56;;;;;;;15.03;14.00;;;4.70;99.90;;;;;;5041027;28;20200;-82
2024/01/23 08:09:23;;;;;;;14.33;13.53;;;4.80;99.90;;;;;;5045245;28;20273;-82
2024/01/23 08:11:51;;;;;;;15.07;14.27;;;4.90;99.90;;;;;;5054722;28;20224;-78
2024/01/23 08:14:18;;;;;;;14.67;13.70;;;5.00;99.90;;;;;;5051766;28;20210;-79
2024/01/23 08:16:45;;;;;;;14.63;13.63;;;5.00;99.90;;;;;;5051901;28;20196;-79
2024/01/23 08:19:12;;;;;;;14.30;13.50;;;5.00;99.90;;;;;;5039445;28;20255;-78
2024/01/23 08:21:38;;;;;;;15.03;14.03;;;5.00;99.90;;;;;;5037958;28;20203;-78
2024/01/23 08:24:07;;;;;;;14.67;13.70;;;5.00;99.90;;;;;;5049332;28;20273;-78
2024/01/23 08:26:33;;;;;;;15.00;13.90;;;5.00;99.90;;;;;;5036006;28;20332;-79
2024/01/23 08:29:00;;;;;;;15.00;14.10;;;5.10;99.90;;;;;;5043816;28;20247;-78
2024/01/23 08:31:27;;;;;;;15.20;13.97;;;5.10;99.90;;;;;;5038980;28;20201;-78
2024/01/23 08:33:54;;;;;;;14.43;13.53;;;5.10;99.90;;;;;;5045700;28;20577;-78
2024/01/23 08:36:21;;;;;;;14.40;13.37;;;5.10;99.90;;;;;;5039797;28;20200;-78
2024/01/23 08:38:48;;;;;;;14.50;13.60;;;5.20;99.90;;;;;;5046462;28;20216;-79
2024/01/23 08:41:16;;;;;;;14.20;13.23;;;5.20;99.90;;;;;;5048977;28;20198;-78
2024/01/23 08:43:44;;;;;;;14.00;13.10;;;5.20;99.90;;;;;;5043379;28;20588;-78
2024/01/23 08:46:10;;;;;;;14.73;13.63;;;5.30;99.90;;;;;;5044853;28;20200;-78
2024/01/23 08:48:37;;;;;;;14.10;13.10;;;5.30;99.90;;;;;;5045258;28;20232;-78
2024/01/23 08:51:05;;;;;;;14.53;13.63;;;5.30;99.90;;;;;;5033444;28;20686;-79
2024/01/23 08:53:32;;;;;;;14.07;13.23;;;5.40;99.90;;;;;;5046298;28;20200;-79
2024/01/23 08:55:58;;;;;;;14.07;13.10;;;5.60;99.90;;;;;;5028827;28;20222;-79
2024/01/23 08:58:27;;;;;;;14.27;13.10;;;5.70;99.90;;;;;;5037833;28;20240;-79
2024/01/23 09:00:53;;;;;;;14.70;13.50;;;5.70;99.90;;;;;;5041647;28;20198;-79
2024/01/23 09:03:21;;;;;;;14.10;13.30;;;5.80;99.90;;;;;;5040632;28;20687;-79
2024/01/23 09:05:50;;;;;;;15.33;14.23;;;5.80;99.90;;;;;;5042387;28;20288;-79
2024/01/23 09:08:17;;;;;;;14.30;13.30;;;5.80;99.90;;;;;;5047993;28;20256;-79
2024/01/23 09:10:44;;;;;;;14.43;13.63;;;6.00;99.90;;;;;;5055244;28;20207;-79
2024/01/23 09:13:10;;;;;;;14.60;13.60;;;6.10;99.90;;;;;;5038350;28;20206;-79
2024/01/23 09:15:39;;;;;;;15.90;14.80;;;6.20;99.90;;;;;;5040713;28;20218;-79
2024/01/23 09:18:06;;;;;;;15.70;14.60;;;6.40;99.90;;;;;;5031027;28;20226;-79
2024/01/23 09:20:33;;;;;;;15.27;14.30;;;6.50;99.90;;;;;;5041216;28;20203;-79
2024/01/23 09:22:59;;;;;;;14.57;13.57;;;6.70;99.90;;;;;;5036274;28;20227;-79
2024/01/23 09:25:26;;;;;;;14.80;13.57;;;6.90;99.90;;;;;;5039437;28;20203;-78
2024/01/23 09:27:53;;;;;;;14.73;13.63;;;7.10;99.90;;;;;;5041206;28;20229;-79
2024/01/23 09:30:20;;;;;;;14.77;13.57;;;7.20;99.90;;;;;;5036982;28;20199;-79
2024/01/23 09:32:48;;;;;;;14.50;13.40;;;7.40;99.90;;;;;;5039454;28;20203;-80
2024/01/23 09:35:15;;;;;;;14.33;13.20;;;7.40;99.90;;;;;;5044525;28;20238;-79
2024/01/23 09:37:42;;;;;;;13.90;12.90;;;7.40;99.90;;;;;;5038694;28;20224;-79
2024/01/23 09:40:09;;;;;;;15.10;13.90;;;7.40;99.90;;;;;;5037141;28;20229;-79
2024/01/23 09:42:38;;;;;;;14.80;13.50;;;7.40;99.90;;;;;;5042448;28;20748;-79
2024/01/23 09:45:12;;;;;;;14.10;13.10;;;7.40;99.90;;;;;;5032858;28;20220;-80
2024/01/23 09:47:39;;;;;;;14.87;13.47;;;7.40;99.90;;;;;;5044154;28;20276;-78
2024/01/23 09:50:12;;;;;;;14.43;13.33;;;7.30;99.90;;;;;;5037216;28;20238;-79
2024/01/23 09:52:42;;;;;;;13.80;12.90;;;7.30;99.90;;;;;;5048153;28;20203;-80
2024/01/23 09:55:10;;;;;;;14.13;13.13;;;7.30;99.90;;;;;;5044068;28;20214;-80
2024/01/23 09:57:39;;;;;;;14.57;13.47;;;7.30;99.90;;;;;;5047708;28;20230;-80
2024/01/23 10:00:11;;;;;;;14.40;13.40;;;7.40;99.90;;;;;;5042979;28;20200;-81
2024/01/23 10:02:40;;;;;;;14.60;13.40;;;7.50;99.90;;;;;;5034792;28;20203;-81
2024/01/23 10:05:11;;;;;;;13.97;12.97;;;7.50;99.90;;;;;;5042717;28;20199;-84
2024/01/23 10:07:38;;;;;;;14.87;13.37;;;7.70;99.90;;;;;;5042283;28;20203;-86
2024/01/23 10:10:13;;;;;;;15.30;14.00;;;7.90;99.90;;;;;;5045772;28;20859;-78
2024/01/23 10:12:40;;;;;;;14.77;13.70;;;8.00;99.90;;;;;;5040569;28;20253;-82
2024/01/23 10:15:11;;;;;;;15.67;14.03;;;8.00;99.90;;;;;;5046231;28;20601;-78
2024/01/23 10:17:38;;;;;;;14.63;13.57;;;7.90;99.90;;;;;;5041824;28;20277;-79
2024/01/23 10:20:08;;;;;;;14.10;13.07;;;8.00;99.90;;;;;;5048297;28;20688;-78
2024/01/23 10:22:36;;;;;;;14.80;13.50;;;8.00;99.90;;;;;;5035277;28;20200;-79
2024/01/23 10:25:03;;;;;;;15.33;14.13;;;8.00;99.90;;;;;;5040615;28;20740;-78
2024/01/23 10:27:31;;;;;;;14.70;13.60;;;8.10;99.90;;;;;;5039130;28;20254;-81
2024/01/23 10:29:58;;;;;;;15.97;14.30;;;8.20;99.90;;;;;;5045711;28;20188;-80
2024/01/23 10:32:24;;;;;;;14.23;13.03;;;8.40;99.90;;;;;;5031847;28;20203;-79
2024/01/23 10:34:53;;;;;;;15.10;13.60;;;8.60;99.90;;;;;;5049205;28;20674;-79
2024/01/23 10:37:21;;;;;;;14.80;13.57;;;8.70;99.90;;;;;;5038804;28;20285;-78
2024/01/23 10:39:51;;;;;;;13.83;12.93;;;8.90;99.90;;;;;;5044317;28;20688;-79
2024/01/23 10:42:19;;;;;;;14.53;13.00;;;9.10;99.90;;;;;;5039792;28;20571;-79
2024/01/23 10:44:48;;;;;;;14.33;12.90;;;9.20;99.90;;;;;;5045246;28;20228;-79
2024/01/23 10:47:16;;;;;;;14.17;12.77;;;9.30;99.90;;;;;;5046064;28;20198;-79
2024/01/23 10:49:43;;;;;;;14.37;13.17;;;9.20;99.90;;;;;;5048396;28;20223;-79
2024/01/23 10:52:13;;;;;;;14.10;12.93;;;9.20;99.90;;;;;;5040821;28;20230;-79
2024/01/23 10:54:44;;;;;;;14.10;13.10;;;9.00;99.90;;;;;;5045692;28;20297;-79
2024/01/23 10:57:21;;;;;;;14.87;13.37;;;8.80;99.90;;;;;;5047408;28;20723;-80
2024/01/23 10:59:48;;;;;;;14.97;13.10;;;8.70;99.90;;;;;;5040052;28;20645;-80
2024/01/23 11:02:24;;;;;;;13.80;12.80;;;8.60;99.90;;;;;;5049338;28;20195;-78
2024/01/23 11:04:52;;;;;;;14.03;12.50;;;8.50;99.90;;;;;;5043116;28;20202;-79
2024/01/23 11:07:26;;;;;;;13.53;12.40;;;8.40;99.90;;;;;;5039660;28;20227;-79
2024/01/23 11:10:02;;;;;;;12.60;11.70;;;8.20;99.90;;;;;;5035428;28;20206;-79
2024/01/23 11:12:42;;;;;;;13.53;12.43;;;8.20;99.90;;;;;;5038399;28;20257;-79
2024/01/23 11:15:13;;;;;;;15.13;12.93;;;8.20;99.90;;;;;;5039535;28;20276;-79
2024/01/23 11:17:40;;;;;;;13.70;12.57;;;8.10;99.90;;;;;;5036233;28;20227;-79
2024/01/23 11:20:09;;;;;;;13.43;12.33;;;8.10;99.90;;;;;;5035938;28;20192;-80
2024/01/23 11:22:36;;;;;;;13.60;12.50;;;8.10;99.90;;;;;;5035269;28;20200;-79
2024/01/23 11:25:04;;;;;;;13.97;12.70;;;8.20;99.90;;;;;;5034073;28;20637;-78
2024/01/23 11:27:34;;;;;;;13.63;12.60;;;8.20;99.90;;;;;;5041843;28;20290;-79
2024/01/23 11:30:01;;;;;;;14.33;12.90;;;8.20;99.90;;;;;;5027422;28;20200;-80
2024/01/23 11:32:29;;;;;;;14.10;12.80;;;8.20;99.90;;;;;;5041776;28;20218;-79
2024/01/23 11:35:03;;;;;;;15.60;13.17;;;8.20;99.90;;;;;;5045248;28;20202;-79
2024/01/23 11:37:41;;;;;;;14.00;12.57;;;8.20;99.90;;;;;;5048668;28;20735;-79
2024/01/23 11:40:24;;;;;;;14.00;12.90;;;8.20;99.90;;;;;;5031191;28;20626;-78
2024/01/23 11:42:52;;;;;;;13.83;12.73;;;8.20;99.90;;;;;;5034496;28;20200;-79
2024/01/23 11:45:21;;;;;;;13.80;12.67;;;8.20;99.90;;;;;;5035018;28;20223;-79
2024/01/23 11:47:50;;;;;;;13.40;12.40;;;8.20;99.90;;;;;;5032462;28;20239;-78
2024/01/23 11:50:18;;;;;;;14.23;12.83;;;8.20;99.90;;;;;;5038183;28;20542;-79
2024/01/23 11:52:50;;;;;;;14.13;12.80;;;8.10;99.90;;;;;;5042257;28;20200;-79
2024/01/23 11:55:18;;;;;;;14.77;13.00;;;8.10;99.90;;;;;;5047571;28;20218;-79
2024/01/23 11:57:45;;;;;;;14.43;12.90;;;8.10;99.90;;;;;;5044467;28;20236;-79
2024/01/23 12:00:15;;;;;;;13.63;12.33;;;8.00;99.90;;;;;;5046128;28;20195;-79
2024/01/23 12:02:43;;;;;;;14.13;12.73;;;8.00;99.90;;;;;;5025873;28;20204;-79
2024/01/23 12:05:09;;;;;;;14.70;12.63;;;8.00;99.90;;;;;;5046543;28;20195;-79
2024/01/23 12:07:38;;;;;;;13.63;12.27;;;8.10;99.90;;;;;;5046669;28;20200;-79
2024/01/23 12:10:07;;;;;;;13.73;12.60;;;8.00;99.90;;;;;;5038754;28;20203;-79
2024/01/23 12:12:33;;;;;;;13.93;12.80;;;7.90;99.90;;;;;;5049881;28;20199;-79
2024/01/23 12:15:00;;;;;;;14.20;12.90;;;7.90;99.90;;;;;;5044381;28;20227;-79
2024/01/23 12:17:28;;;;;;;13.27;12.17;;;8.00;99.90;;;;;;5047172;28;20223;-79
2024/01/23 12:19:55;;;;;;;14.57;13.07;;;8.00;99.90;;;;;;5044933;28;20227;-78
2024/01/23 12:22:22;;;;;;;14.00;12.70;;;8.10;99.90;;;;;;5046909;28;20199;-79
2024/01/23 12:24:49;;;;;;;13.83;12.73;;;8.20;99.90;;;;;;5038325;28;20191;-78
2024/01/23 12:27:16;;;;;;;14.47;12.90;;;8.10;99.90;;;;;;5039680;28;20538;-79
2024/01/23 12:29:42;;;;;;;13.13;12.03;;;8.00;99.90;;;;;;5045400;28;20261;-79
2024/01/23 12:32:10;;;;;;;14.27;12.90;;;7.90;99.90;;;;;;5038786;28;20750;-79
2024/01/23 12:34:40;;;;;;;13.87;12.77;;;7.80;99.90;;;;;;5041107;28;20203;-79
2024/01/23 12:37:08;;;;;;;14.00;12.90;;;7.80;99.90;;;;;;5043962;28;20292;-79